Time;durP1;ratioP1;P1;durP2;ratioP2;P2;SDS_P1;SDS_P2;PMS_P1;PMS_P2;Temp;Humidity;BMP_temperature;BMP_pressure;BME280_temperature;BME280_humidity;BME280_pressure;Samples;Min_cycle;Max_cycle;Signal;HPM_P1;HPM_P2
2022/12/27 00:02:03;;;;;;;4.18;3.00;;;17.10;55.30;;;;;;4966011;29;20027;-63
2022/12/27 00:04:30;;;;;;;4.13;2.67;;;17.00;55.30;;;;;;4965973;29;20034;-63
2022/12/27 00:06:56;;;;;;;3.65;2.80;;;17.00;55.50;;;;;;4965633;29;20110;-63
2022/12/27 00:09:22;;;;;;;3.70;2.97;;;16.90;55.60;;;;;;4965954;29;20038;-64
2022/12/27 00:11:48;;;;;;;2.97;2.65;;;16.90;55.70;;;;;;4965764;29;20082;-63
2022/12/27 00:14:14;;;;;;;3.75;2.80;;;16.80;55.70;;;;;;4965807;29;20035;-63
2022/12/27 00:16:40;;;;;;;3.50;2.95;;;16.80;55.90;;;;;;4965676;29;20019;-63
2022/12/27 00:19:06;;;;;;;2.97;2.50;;;16.80;55.90;;;;;;4965803;29;20030;-64
2022/12/27 00:21:32;;;;;;;3.05;2.50;;;16.70;55.90;;;;;;4965693;29;20070;-63
2022/12/27 00:23:59;;;;;;;2.97;2.67;;;16.80;56.00;;;;;;4965658;29;20034;-63
2022/12/27 00:26:34;;;;;;;3.00;2.70;;;16.80;55.80;;;;;;4948321;29;20046;-63
2022/12/27 00:29:00;;;;;;;4.00;3.00;;;16.80;55.80;;;;;;4965533;29;20282;-63
2022/12/27 00:31:30;;;;;;;5.38;2.97;;;16.80;55.70;;;;;;4965512;29;20019;-63
2022/12/27 00:33:58;;;;;;;4.00;3.13;;;16.80;55.70;;;;;;4965291;29;20210;-62
2022/12/27 00:36:28;;;;;;;4.07;3.00;;;16.90;55.60;;;;;;4965397;29;20051;-63
2022/12/27 00:38:55;;;;;;;3.10;2.67;;;16.90;55.30;;;;;;4965257;29;20023;-62
2022/12/27 00:41:24;;;;;;;3.67;2.90;;;17.00;55.10;;;;;;4965319;29;20027;-63
2022/12/27 00:43:50;;;;;;;3.55;2.70;;;17.20;54.80;;;;;;4965279;29;20023;-63
2022/12/27 00:46:16;;;;;;;4.00;2.90;;;17.30;54.50;;;;;;4965197;29;20107;-63
2022/12/27 00:48:43;;;;;;;3.00;2.20;;;17.40;54.20;;;;;;4965213;29;20093;-62
2022/12/27 00:51:20;;;;;;;4.47;3.13;;;17.50;53.90;;;;;;4965241;29;20315;-63
2022/12/27 00:53:47;;;;;;;3.45;2.90;;;17.50;53.90;;;;;;4965239;29;20315;-66
2022/12/27 00:56:19;;;;;;;3.42;2.75;;;17.50;54.60;;;;;;4965060;29;20027;-62
2022/12/27 00:58:46;;;;;;;3.45;3.08;;;17.50;54.00;;;;;;4964948;29;20027;-62
2022/12/27 01:01:15;;;;;;;3.13;2.58;;;17.50;54.00;;;;;;4965003;29;20020;-63
2022/12/27 01:03:40;;;;;;;3.92;3.05;;;17.50;54.10;;;;;;4964930;28;20096;-63
2022/12/27 01:06:09;;;;;;;3.08;2.63;;;17.50;54.30;;;;;;4964873;29;20047;-63
2022/12/27 01:08:36;;;;;;;3.42;2.97;;;17.40;54.40;;;;;;4964772;29;20059;-63
2022/12/27 01:11:02;;;;;;;4.38;3.00;;;17.30;54.60;;;;;;4964820;29;20023;-63
2022/12/27 01:13:28;;;;;;;3.65;2.80;;;17.30;54.70;;;;;;4964739;29;20050;-63
2022/12/27 01:15:54;;;;;;;3.83;2.70;;;17.30;54.80;;;;;;4964592;29;20023;-63
2022/12/27 01:18:20;;;;;;;4.13;2.97;;;17.20;54.90;;;;;;4964543;29;20090;-63
2022/12/27 01:20:46;;;;;;;3.72;2.90;;;17.20;55.10;;;;;;4964586;29;20338;-63
2022/12/27 01:23:12;;;;;;;3.20;2.55;;;17.10;55.10;;;;;;4964525;29;20019;-63
2022/12/27 01:25:38;;;;;;;3.92;3.00;;;17.10;55.10;;;;;;4964574;29;20031;-63
2022/12/27 01:28:04;;;;;;;3.90;2.95;;;17.10;55.20;;;;;;4964570;29;20081;-63
2022/12/27 01:30:30;;;;;;;3.00;2.70;;;17.10;55.40;;;;;;4964320;29;20302;-62
2022/12/27 01:32:56;;;;;;;4.35;3.17;;;17.10;55.40;;;;;;4964394;29;20055;-63
2022/12/27 01:35:21;;;;;;;3.00;2.60;;;17.00;55.40;;;;;;4964452;29;20349;-63
2022/12/27 01:37:47;;;;;;;4.45;2.58;;;17.00;55.50;;;;;;4964241;29;20023;-63
2022/12/27 01:40:13;;;;;;;3.55;2.40;;;17.00;55.70;;;;;;4964282;29;20032;-63
2022/12/27 01:42:51;;;;;;;3.50;2.42;;;16.90;55.70;;;;;;4964207;29;20027;-63
2022/12/27 01:45:25;;;;;;;5.78;2.70;;;16.90;55.80;;;;;;4964200;29;20082;-62
2022/12/27 01:47:59;;;;;;;3.72;2.75;;;16.80;55.90;;;;;;4964069;29;20231;-62
2022/12/27 01:50:28;;;;;;;3.80;2.80;;;16.80;56.00;;;;;;4964062;29;20082;-62
2022/12/27 01:53:23;;;;;;;3.90;2.55;;;16.80;56.00;;;;;;4963994;29;20023;-63
2022/12/27 01:55:58;;;;;;;3.83;2.50;;;16.80;56.00;;;;;;4958539;29;20102;-63
2022/12/27 01:58:23;;;;;;;3.38;2.85;;;16.70;55.90;;;;;;4963834;29;20062;-64
2022/12/27 02:00:50;;;;;;;3.65;2.70;;;16.90;55.70;;;;;;4963847;29;20116;-64
2022/12/27 02:03:25;;;;;;;3.85;2.95;;;16.90;55.70;;;;;;4963790;29;20054;-65
2022/12/27 02:05:52;;;;;;;4.70;3.15;;;17.00;55.40;;;;;;4963796;29;20078;-65
2022/12/27 02:08:27;;;;;;;3.47;2.88;;;17.00;55.10;;;;;;4963739;29;20047;-64
2022/12/27 02:10:56;;;;;;;2.45;1.95;;;17.10;54.90;;;;;;4963679;29;20097;-65
2022/12/27 02:13:22;;;;;;;3.13;2.40;;;17.30;54.70;;;;;;4963746;29;20035;-65
2022/12/27 02:15:49;;;;;;;2.55;2.30;;;17.40;54.40;;;;;;4963287;28;20338;-63
2022/12/27 02:18:15;;;;;;;3.22;2.83;;;17.40;54.40;;;;;;4963550;29;20075;-64
2022/12/27 02:21:17;;;;;;;3.05;2.70;;;17.40;54.40;;;;;;4963507;29;20018;-62
2022/12/27 02:24:23;;;;;;;2.80;2.45;;;17.30;54.50;;;;;;4963334;29;20222;-62
2022/12/27 02:27:05;;;;;;;2.92;2.42;;;17.30;54.60;;;;;;4963412;29;20026;-62
2022/12/27 02:29:52;;;;;;;2.92;2.40;;;17.20;54.80;;;;;;4963454;29;20023;-62
2022/12/27 02:32:35;;;;;;;3.90;2.90;;;17.10;54.90;;;;;;4963428;29;20130;-63
2022/12/27 02:35:03;;;;;;;3.05;2.50;;;17.10;55.00;;;;;;4963266;29;20023;-64
2022/12/27 02:37:33;;;;;;;2.88;2.50;;;17.10;55.20;;;;;;4963184;29;20027;-62
2022/12/27 02:53:02;;;;;;;4.05;3.10;;;17.00;55.20;;;;;;4963164;29;20023;-62
2022/12/27 02:55:02;;;;;;;2.72;2.53;;;16.90;55.60;;;;;;4932760;29;20038;-63
2022/12/27 02:57:47;;;;;;;2.77;2.57;;;16.90;55.40;;;;;;4963180;29;20331;-64
2022/12/27 03:03:19;;;;;;;3.58;2.80;;;16.90;55.30;;;;;;4963108;29;20019;-63
2022/12/27 03:15:54;;;;;;;2.75;2.35;;;16.90;55.40;;;;;;4962945;29;20070;-63
2022/12/27 03:18:52;;;;;;;3.20;2.80;;;16.90;55.40;;;;;;4962967;29;20046;-64
2022/12/27 03:27:16;;;;;;;3.35;2.53;;;16.90;55.50;;;;;;4964659;28;20025;-63
2022/12/27 03:39:04;;;;;;;2.45;2.15;;;17.30;54.60;;;;;;4966901;29;20111;-63
2022/12/27 03:44:24;;;;;;;3.08;2.45;;;17.40;54.00;;;;;;4966648;29;20022;-62
2022/12/27 03:47:06;;;;;;;3.40;2.70;;;17.50;54.00;;;;;;4966601;29;20031;-63
2022/12/27 03:49:35;;;;;;;3.28;2.63;;;17.60;53.90;;;;;;4966655;29;20246;-63
2022/12/27 03:52:10;;;;;;;3.70;2.45;;;17.50;54.00;;;;;;4966501;29;20030;-62
2022/12/27 03:54:38;;;;;;;3.97;2.65;;;17.40;54.20;;;;;;4966256;29;20034;-62
2022/12/27 03:57:06;;;;;;;;;;;17.40;54.40;;;;;;4966734;29;20196;-64
2022/12/27 03:59:32;;;;;;;3.35;2.42;;;17.40;54.40;;;;;;4966386;29;19918;-63
2022/12/27 04:01:59;;;;;;;3.13;2.40;;;17.30;54.70;;;;;;4966273;29;20033;-63
2022/12/27 04:04:25;;;;;;;3.53;2.28;;;17.20;54.90;;;;;;4966228;29;20055;-62
2022/12/27 04:06:50;;;;;;;2.75;2.20;;;17.10;55.10;;;;;;4965989;29;20055;-63
2022/12/27 04:36:46;;;;;;;2.47;2.00;;;16.80;55.90;;;;;;4965566;29;20030;-62
2022/12/27 04:39:12;;;;;;;4.72;2.40;;;16.80;55.70;;;;;;4965046;28;20021;-63
2022/12/27 04:55:29;;;;;;;3.28;2.40;;;17.00;55.20;;;;;;4965325;29;20585;-64
2022/12/27 04:57:56;;;;;;;2.72;2.00;;;17.00;54.90;;;;;;4965252;29;20065;-64
2022/12/27 05:03:14;;;;;;;2.90;2.60;;;17.20;54.60;;;;;;4965298;29;20035;-65
2022/12/27 05:05:42;;;;;;;2.13;1.80;;;17.30;54.40;;;;;;4965120;29;20346;-64
2022/12/27 05:16:22;;;;;;;3.17;2.30;;;17.40;54.00;;;;;;4964851;29;20066;-62
2022/12/27 05:18:48;;;;;;;2.90;1.95;;;17.40;54.20;;;;;;4964909;29;20031;-64
2022/12/27 05:21:14;;;;;;;2.35;1.88;;;17.30;54.30;;;;;;4964863;29;20019;-64
2022/12/27 05:26:27;;;;;;;2.90;2.17;;;17.10;54.70;;;;;;4964677;29;20109;-64
2022/12/27 05:28:55;;;;;;;2.88;2.38;;;17.10;55.00;;;;;;4964535;29;20062;-64
2022/12/27 05:31:23;;;;;;;2.40;2.03;;;17.10;55.20;;;;;;4964626;29;20031;-64
2022/12/27 05:33:50;;;;;;;3.10;2.40;;;17.00;55.10;;;;;;4964596;29;20501;-64
2022/12/27 05:36:16;;;;;;;3.63;2.38;;;17.00;55.20;;;;;;4964457;29;20015;-64
2022/12/27 05:38:42;;;;;;;2.33;1.90;;;17.00;55.60;;;;;;4964423;29;20291;-64
2022/12/27 05:41:08;;;;;;;3.25;2.53;;;16.90;55.60;;;;;;4964419;29;20026;-62
2022/12/27 05:43:34;;;;;;;2.53;2.00;;;16.90;55.60;;;;;;4964480;29;20019;-64
2022/12/27 05:46:09;;;;;;;2.10;1.85;;;16.90;55.60;;;;;;4964275;29;20034;-65
2022/12/27 05:48:35;;;;;;;2.67;2.22;;;16.90;55.80;;;;;;4964096;28;20027;-64
2022/12/27 05:51:16;;;;;;;2.63;2.15;;;16.80;55.70;;;;;;4963615;29;20118;-64
2022/12/27 05:53:42;;;;;;;2.30;2.10;;;16.80;55.80;;;;;;4964223;29;20105;-64
2022/12/27 05:56:10;;;;;;;3.60;2.63;;;16.80;55.80;;;;;;4964175;29;20108;-64
2022/12/27 05:58:36;;;;;;;2.72;2.42;;;16.80;55.80;;;;;;4963016;29;20019;-64
2022/12/27 06:01:08;;;;;;;3.83;2.17;;;16.80;55.80;;;;;;4964098;29;20038;-64
2022/12/27 06:03:34;;;;;;;2.88;2.15;;;16.70;55.70;;;;;;4964085;29;20019;-64
2022/12/27 06:06:01;;;;;;;2.28;1.90;;;16.70;55.70;;;;;;4963903;29;20106;-64
2022/12/27 06:08:28;;;;;;;2.13;1.92;;;16.80;55.40;;;;;;4963788;29;20074;-64
2022/12/27 06:11:13;;;;;;;3.30;2.35;;;16.90;55.30;;;;;;4963812;29;20124;-64
2022/12/27 06:13:40;;;;;;;2.88;2.03;;;17.00;55.10;;;;;;4963684;29;20065;-64
2022/12/27 06:16:09;;;;;;;2.40;2.17;;;17.10;54.80;;;;;;4963660;29;20023;-64
2022/12/27 06:18:37;;;;;;;2.17;1.92;;;17.20;54.60;;;;;;4963599;29;20058;-64
2022/12/27 06:21:05;;;;;;;2.90;2.10;;;17.20;54.50;;;;;;4963694;29;20320;-64
2022/12/27 06:23:36;;;;;;;2.35;2.15;;;17.40;54.30;;;;;;4963777;29;20066;-64
2022/12/27 06:26:07;;;;;;;2.45;1.95;;;17.40;54.10;;;;;;4963680;29;20031;-64
2022/12/27 06:28:33;;;;;;;2.00;1.80;;;17.40;54.10;;;;;;4963658;29;20039;-64
2022/12/27 06:31:00;;;;;;;2.03;1.85;;;17.40;54.20;;;;;;4963544;29;20030;-64
2022/12/27 06:33:27;;;;;;;2.20;1.83;;;17.40;54.30;;;;;;4963417;29;20358;-64
2022/12/27 06:35:53;;;;;;;2.35;1.90;;;17.30;54.40;;;;;;4963481;29;20533;-65
2022/12/27 06:38:19;;;;;;;2.67;2.13;;;17.30;54.30;;;;;;4963339;29;20092;-64
2022/12/27 06:40:45;;;;;;;2.13;1.77;;;17.30;54.40;;;;;;4963303;29;20250;-64
2022/12/27 06:43:11;;;;;;;2.30;1.88;;;17.20;54.60;;;;;;4963358;29;20098;-64
2022/12/27 06:45:37;;;;;;;1.92;1.65;;;17.20;54.80;;;;;;4963325;29;20030;-64
2022/12/27 06:48:03;;;;;;;2.50;1.80;;;17.10;54.90;;;;;;4963212;29;20027;-64
2022/12/27 06:50:29;;;;;;;2.40;2.13;;;17.10;55.00;;;;;;4963230;29;20027;-64
2022/12/27 06:52:55;;;;;;;2.88;2.00;;;17.00;55.30;;;;;;4963145;29;20419;-64
2022/12/27 06:55:21;;;;;;;2.38;1.92;;;17.00;55.30;;;;;;4963207;29;20035;-64
2022/12/27 06:57:48;;;;;;;2.35;2.03;;;17.00;55.40;;;;;;4963031;29;20069;-64
2022/12/27 07:00:15;;;;;;;2.80;2.17;;;16.90;55.30;;;;;;4963021;28;20019;-65
2022/12/27 07:02:41;;;;;;;2.60;1.92;;;16.90;55.60;;;;;;4963001;29;20072;-65
2022/12/27 07:05:07;;;;;;;1.77;1.60;;;16.90;55.50;;;;;;4963103;29;20059;-64
2022/12/27 07:07:33;;;;;;;2.90;2.08;;;16.80;55.20;;;;;;4962807;29;20078;-64
2022/12/27 07:09:59;;;;;;;2.72;2.05;;;16.80;55.50;;;;;;4962955;29;20035;-63
2022/12/27 07:12:25;;;;;;;2.63;2.15;;;16.80;55.30;;;;;;4962930;29;20020;-64
2022/12/27 07:14:50;;;;;;;2.08;1.88;;;16.80;55.50;;;;;;4962954;29;20078;-65
2022/12/27 07:17:16;;;;;;;2.00;1.70;;;16.80;55.60;;;;;;4962826;29;20078;-65
2022/12/27 07:19:42;;;;;;;2.38;2.10;;;16.80;55.40;;;;;;4962848;29;20207;-65
2022/12/27 07:22:08;;;;;;;2.08;1.80;;;16.80;55.50;;;;;;4962825;29;20019;-64
2022/12/27 07:24:33;;;;;;;3.75;2.30;;;16.80;55.30;;;;;;4962820;29;20027;-65
2022/12/27 07:27:01;;;;;;;2.75;2.08;;;16.80;55.30;;;;;;4962738;29;20034;-65
2022/12/27 07:29:26;;;;;;;2.90;2.10;;;16.90;55.30;;;;;;4962727;29;20114;-65
2022/12/27 07:31:53;;;;;;;2.80;2.10;;;17.00;55.00;;;;;;4962771;29;20019;-64
2022/12/27 07:34:20;;;;;;;2.15;1.90;;;17.10;54.60;;;;;;4962681;29;20027;-64
2022/12/27 07:36:47;;;;;;;2.15;1.95;;;17.10;54.30;;;;;;4962648;29;20019;-64
2022/12/27 07:39:13;;;;;;;2.00;1.80;;;17.20;54.40;;;;;;4977642;28;20019;-64
2022/12/27 07:41:39;;;;;;;2.33;2.10;;;17.30;54.30;;;;;;4962633;29;20079;-64
2022/12/27 07:44:05;;;;;;;2.25;2.03;;;17.30;54.40;;;;;;4962608;29;20027;-64
2022/12/27 07:46:32;;;;;;;2.42;2.08;;;17.30;54.20;;;;;;4962622;29;20019;-64
2022/12/27 07:48:58;;;;;;;2.20;2.00;;;17.30;54.30;;;;;;4962571;29;20027;-65
2022/12/27 07:51:25;;;;;;;3.08;1.92;;;17.30;54.10;;;;;;4962659;29;20019;-64
2022/12/27 07:53:51;;;;;;;2.17;1.98;;;17.30;54.20;;;;;;4962690;29;20027;-64
2022/12/27 07:56:20;;;;;;;2.20;2.00;;;17.30;54.30;;;;;;4962669;29;20127;-65
2022/12/27 07:58:48;;;;;;;1.98;1.65;;;17.30;54.30;;;;;;4962553;29;20069;-65
2022/12/27 08:01:15;;;;;;;2.22;1.92;;;17.20;54.50;;;;;;4962617;29;20054;-64
2022/12/27 08:03:42;;;;;;;2.17;1.95;;;17.20;55.10;;;;;;4961409;29;20030;-63
2022/12/27 08:06:19;;;;;;;2.10;1.90;;;17.10;54.30;;;;;;4962569;29;20079;-64
2022/12/27 08:08:45;;;;;;;2.38;1.95;;;17.10;54.50;;;;;;4962560;29;20291;-64
2022/12/27 08:11:11;;;;;;;2.45;2.00;;;17.10;54.70;;;;;;4962569;29;20034;-65
2022/12/27 08:13:37;;;;;;;2.13;1.80;;;17.10;54.90;;;;;;4964725;28;20023;-64
2022/12/27 08:16:03;;;;;;;2.00;1.75;;;17.10;55.00;;;;;;4966010;29;20255;-64
2022/12/27 08:18:30;;;;;;;2.20;1.90;;;17.10;55.10;;;;;;4965849;29;20034;-65
2022/12/27 08:20:55;;;;;;;3.38;2.35;;;17.00;55.00;;;;;;4965932;29;20082;-65
2022/12/27 08:23:21;;;;;;;2.22;1.88;;;17.00;55.30;;;;;;4965826;29;20062;-64
2022/12/27 08:25:47;;;;;;;2.05;1.58;;;16.90;55.20;;;;;;4965795;29;20039;-65
2022/12/27 08:28:14;;;;;;;2.13;1.92;;;16.90;55.40;;;;;;4965766;29;20023;-64
2022/12/27 08:30:42;;;;;;;2.40;1.92;;;16.90;55.40;;;;;;4965672;29;20178;-64
2022/12/27 08:33:09;;;;;;;2.58;2.15;;;16.90;55.50;;;;;;4965732;29;20054;-64
2022/12/27 08:35:43;;;;;;;2.42;1.85;;;16.80;55.50;;;;;;4965488;29;20027;-64
2022/12/27 08:38:09;;;;;;;2.92;2.28;;;16.90;56.10;;;;;;4965540;29;20031;-64
2022/12/27 08:40:40;;;;;;;2.08;1.88;;;16.80;55.50;;;;;;4965589;29;20123;-65
2022/12/27 08:43:07;;;;;;;2.13;1.83;;;16.90;55.40;;;;;;4965571;29;20031;-65
2022/12/27 08:45:33;;;;;;;1.92;1.67;;;16.90;55.40;;;;;;4965479;29;20051;-64
2022/12/27 08:48:00;;;;;;;2.35;2.05;;;16.90;55.40;;;;;;4965395;29;20042;-64
2022/12/27 08:50:27;;;;;;;2.35;2.00;;;16.90;55.40;;;;;;4965341;29;20102;-64
2022/12/27 08:52:57;;;;;;;2.10;1.90;;;16.90;55.30;;;;;;4965283;29;20110;-64
2022/12/27 08:55:23;;;;;;;2.83;2.10;;;16.90;55.10;;;;;;4965150;29;20086;-64
2022/12/27 08:57:48;;;;;;;1.60;1.50;;;17.00;55.10;;;;;;4965209;29;20054;-64
2022/12/27 09:00:15;;;;;;;2.03;1.75;;;17.10;54.80;;;;;;4965184;29;20019;-63
2022/12/27 09:02:40;;;;;;;2.15;1.65;;;17.20;54.40;;;;;;4965147;29;20050;-64
2022/12/27 09:05:06;;;;;;;2.00;1.77;;;17.30;54.30;;;;;;4964989;29;20216;-64
2022/12/27 09:07:33;;;;;;;2.35;1.90;;;17.40;54.10;;;;;;4964605;29;20062;-64
2022/12/27 09:09:59;;;;;;;3.20;2.15;;;17.40;53.80;;;;;;4964971;29;20034;-64
2022/12/27 09:12:24;;;;;;;2.33;2.13;;;17.40;53.90;;;;;;4964967;29;20342;-63
2022/12/27 09:14:50;;;;;;;1.92;1.55;;;17.50;53.80;;;;;;4965007;29;20211;-64
2022/12/27 09:17:16;;;;;;;2.17;1.98;;;17.50;53.80;;;;;;4964771;29;20066;-62
2022/12/27 09:19:42;;;;;;;2.85;1.83;;;17.40;53.80;;;;;;4964810;29;20030;-65
2022/12/27 09:22:07;;;;;;;2.10;1.90;;;17.40;53.90;;;;;;4964763;29;20023;-63
2022/12/27 09:24:33;;;;;;;1.90;1.63;;;17.40;53.90;;;;;;4963156;28;20023;-64
2022/12/27 09:26:59;;;;;;;3.05;1.98;;;17.40;53.90;;;;;;4964730;29;20090;-64
2022/12/27 09:29:25;;;;;;;2.20;2.00;;;17.40;54.00;;;;;;4964657;29;20235;-64
2022/12/27 09:31:50;;;;;;;2.05;1.70;;;17.40;54.10;;;;;;4964569;29;20027;-65
2022/12/27 09:34:16;;;;;;;2.97;2.08;;;17.30;53.80;;;;;;4964521;29;20584;-65
2022/12/27 09:36:42;;;;;;;2.08;1.83;;;17.30;54.00;;;;;;4964456;29;20038;-62
2022/12/27 09:39:11;;;;;;;1.83;1.70;;;17.40;54.20;;;;;;4963290;29;20019;-64
2022/12/27 09:41:44;;;;;;;2.35;1.80;;;17.40;53.80;;;;;;4964519;29;20090;-62
2022/12/27 09:44:17;;;;;;;3.35;1.65;;;17.30;53.80;;;;;;4964484;29;20070;-62
2022/12/27 09:47:02;;;;;;;1.88;1.52;;;17.40;54.00;;;;;;4964421;29;20027;-65
2022/12/27 09:49:51;;;;;;;1.77;1.60;;;17.40;53.90;;;;;;4964404;29;20365;-62
2022/12/27 09:52:25;;;;;;;2.10;1.85;;;17.50;53.80;;;;;;4964275;29;20110;-64
2022/12/27 09:54:50;;;;;;;1.88;1.73;;;17.50;53.90;;;;;;4964259;29;20041;-64
2022/12/27 09:57:25;;;;;;;2.20;2.00;;;17.40;53.60;;;;;;4964087;29;20042;-64
2022/12/27 09:59:57;;;;;;;1.55;1.45;;;17.40;53.80;;;;;;4964170;29;20073;-64
2022/12/27 10:02:27;;;;;;;2.30;1.67;;;17.50;53.80;;;;;;4964126;29;20027;-64
2022/12/27 10:04:55;;;;;;;1.75;1.58;;;17.50;53.70;;;;;;4963937;29;20029;-64
2022/12/27 10:07:59;;;;;;;1.88;1.63;;;17.50;53.80;;;;;;4964031;29;20118;-62
2022/12/27 10:10:39;;;;;;;1.80;1.30;;;17.50;53.70;;;;;;4960552;29;20066;-62
2022/12/27 10:13:12;;;;;;;2.72;1.90;;;17.50;54.30;;;;;;4963889;29;20035;-62
2022/12/27 10:15:59;;;;;;;1.90;1.70;;;17.50;53.70;;;;;;4963941;29;20409;-62
2022/12/27 10:18:43;;;;;;;1.98;1.85;;;17.50;53.50;;;;;;4963788;29;20447;-63
2022/12/27 10:21:24;;;;;;;2.40;1.75;;;17.50;53.70;;;;;;4963789;29;20031;-62
2022/12/27 10:23:59;;;;;;;1.58;1.45;;;17.60;53.70;;;;;;4963724;29;20019;-62
2022/12/27 10:26:26;;;;;;;2.15;1.70;;;17.60;53.50;;;;;;4963778;29;20030;-62
2022/12/27 10:29:00;;;;;;;1.77;1.60;;;17.60;53.70;;;;;;4946387;29;20027;-62
2022/12/27 10:31:29;;;;;;;2.10;1.80;;;17.60;53.80;;;;;;4963621;29;20038;-63
2022/12/27 10:33:55;;;;;;;2.22;1.90;;;17.60;53.70;;;;;;4963662;29;20050;-63
2022/12/27 10:36:24;;;;;;;2.28;1.60;;;17.60;53.80;;;;;;4963269;28;20030;-63
2022/12/27 10:38:50;;;;;;;3.80;2.00;;;17.60;53.70;;;;;;4963463;29;20070;-62
2022/12/27 10:41:34;;;;;;;1.50;1.40;;;17.60;53.70;;;;;;4963615;29;20046;-62
2022/12/27 10:44:00;;;;;;;2.00;1.58;;;17.60;53.80;;;;;;4963462;29;20050;-62
2022/12/27 10:46:31;;;;;;;2.13;1.58;;;17.60;53.80;;;;;;4963533;29;20315;-62
2022/12/27 10:48:59;;;;;;;2.45;1.67;;;17.50;53.60;;;;;;4963436;29;20070;-63
2022/12/27 10:51:33;;;;;;;1.63;1.48;;;17.50;53.80;;;;;;4963458;29;20034;-62
2022/12/27 10:54:10;;;;;;;1.70;1.50;;;17.50;53.80;;;;;;4963401;29;20183;-62
2022/12/27 10:56:38;;;;;;;1.95;1.60;;;17.40;53.90;;;;;;4963361;29;20058;-63
2022/12/27 10:59:12;;;;;;;2.03;1.67;;;17.40;53.90;;;;;;4963317;29;20011;-63
2022/12/27 11:01:38;;;;;;;2.25;1.80;;;17.40;54.00;;;;;;4963409;29;20023;-62
2022/12/27 11:04:22;;;;;;;2.60;2.05;;;17.40;54.10;;;;;;4963363;29;20050;-63
2022/12/27 11:06:50;;;;;;;2.20;1.88;;;17.40;54.10;;;;;;4963043;29;20094;-62
2022/12/27 11:09:26;;;;;;;1.42;1.33;;;17.40;54.10;;;;;;4963235;29;20042;-62
2022/12/27 11:12:14;;;;;;;1.75;1.55;;;17.40;54.10;;;;;;4963318;29;20094;-62
2022/12/27 11:15:04;;;;;;;1.77;1.60;;;17.40;54.10;;;;;;4963283;29;20031;-62
2022/12/27 11:17:51;;;;;;;2.33;1.70;;;17.40;54.00;;;;;;4963381;29;20023;-63
2022/12/27 11:20:31;;;;;;;2.15;1.50;;;17.50;53.90;;;;;;4963184;29;20089;-62
2022/12/27 11:23:03;;;;;;;1.73;1.63;;;17.50;53.90;;;;;;4963291;29;20026;-63
2022/12/27 11:25:30;;;;;;;1.55;1.45;;;17.40;53.80;;;;;;4963094;29;20233;-62
2022/12/27 11:28:03;;;;;;;1.70;1.33;;;17.40;54.00;;;;;;4963237;29;20026;-62
2022/12/27 11:30:34;;;;;;;2.15;1.50;;;17.40;53.90;;;;;;4963268;29;20030;-63
2022/12/27 11:33:23;;;;;;;1.58;1.42;;;17.40;54.00;;;;;;4963094;29;20031;-62
2022/12/27 11:35:53;;;;;;;1.50;1.40;;;17.40;54.00;;;;;;4963202;29;20392;-62
2022/12/27 11:38:24;;;;;;;1.85;1.50;;;17.40;54.10;;;;;;4962917;29;20319;-62
2022/12/27 11:40:59;;;;;;;1.85;1.75;;;17.30;54.10;;;;;;4963166;29;20038;-62
2022/12/27 11:43:31;;;;;;;2.28;1.60;;;17.30;54.00;;;;;;4963121;29;20031;-62
2022/12/27 11:46:00;;;;;;;1.67;1.48;;;17.30;54.20;;;;;;4945880;29;20027;-63
2022/12/27 11:48:40;;;;;;;1.98;1.70;;;17.30;54.10;;;;;;4965277;28;20034;-63
2022/12/27 11:51:26;;;;;;;1.92;1.52;;;17.30;54.20;;;;;;4966815;29;20091;-63
2022/12/27 11:54:30;;;;;;;1.70;1.50;;;17.30;54.10;;;;;;4966728;29;20066;-62
2022/12/27 11:57:28;;;;;;;1.83;1.50;;;17.30;54.10;;;;;;4945422;29;20030;-64
2022/12/27 12:00:16;;;;;;;1.48;1.35;;;17.30;54.10;;;;;;4940277;29;20078;-64
2022/12/27 12:03:11;;;;;;;1.38;1.27;;;17.30;54.20;;;;;;4963127;29;20222;-63
2022/12/27 12:06:03;;;;;;;1.65;1.48;;;17.30;54.20;;;;;;4966470;29;20083;-64
2022/12/27 12:08:50;;;;;;;1.55;1.40;;;17.30;54.20;;;;;;4957305;29;20239;-64
2022/12/27 12:11:35;;;;;;;2.03;1.40;;;17.30;54.20;;;;;;4966470;29;20011;-64
2022/12/27 12:14:19;;;;;;;1.70;1.60;;;17.30;54.20;;;;;;4966350;29;20027;-64
2022/12/27 12:17:07;;;;;;;1.85;1.67;;;17.30;54.20;;;;;;4966276;29;20041;-64
2022/12/27 12:19:32;;;;;;;2.13;1.52;;;17.30;54.20;;;;;;4966232;29;20023;-64
2022/12/27 12:22:11;;;;;;;2.00;1.77;;;17.30;54.10;;;;;;4966192;29;20049;-64
2022/12/27 12:24:46;;;;;;;2.05;1.77;;;17.30;54.00;;;;;;4966177;29;20019;-64
2022/12/27 12:27:17;;;;;;;1.92;1.73;;;17.30;54.00;;;;;;4966077;29;20039;-65
2022/12/27 12:30:00;;;;;;;2.58;1.80;;;17.30;54.10;;;;;;4964776;29;20035;-65
2022/12/27 12:32:53;;;;;;;1.88;1.50;;;17.30;54.00;;;;;;4965953;29;20039;-64
2022/12/27 12:35:40;;;;;;;1.60;1.50;;;17.30;54.10;;;;;;4964807;29;20063;-64
2022/12/27 12:38:37;;;;;;;1.58;1.40;;;17.40;54.00;;;;;;4965853;29;20086;-64
2022/12/27 12:41:30;;;;;;;2.45;1.65;;;17.40;53.90;;;;;;4965784;29;20024;-63
2022/12/27 12:44:34;;;;;;;1.35;1.20;;;17.60;53.50;;;;;;4965801;29;20023;-65
2022/12/27 12:47:10;;;;;;;1.50;1.40;;;17.70;53.00;;;;;;4965398;29;20043;-64
2022/12/27 12:49:42;;;;;;;1.80;1.67;;;17.80;52.70;;;;;;4965667;29;20057;-65
2022/12/27 12:52:29;;;;;;;2.33;1.77;;;17.80;52.60;;;;;;4965697;29;20346;-64
2022/12/27 12:55:04;;;;;;;1.65;1.50;;;17.90;52.30;;;;;;4965600;29;20342;-64
2022/12/27 12:57:36;;;;;;;1.55;1.23;;;18.10;51.90;;;;;;4965514;29;20023;-64
2022/12/27 13:00:14;;;;;;;1.73;1.40;;;18.40;51.00;;;;;;4965150;28;20406;-64
2022/12/27 13:02:59;;;;;;;2.13;1.48;;;18.80;50.20;;;;;;4965424;29;20034;-64
2022/12/27 13:05:30;;;;;;;1.50;1.40;;;19.10;49.60;;;;;;4965405;29;20027;-64
2022/12/27 13:08:17;;;;;;;1.95;1.50;;;19.20;49.00;;;;;;4965004;29;20066;-64
2022/12/27 13:11:01;;;;;;;1.08;1.00;;;19.30;48.80;;;;;;4965319;29;20070;-64
2022/12/27 13:13:48;;;;;;;1.52;1.42;;;19.30;48.60;;;;;;4965240;29;20152;-64
2022/12/27 13:16:20;;;;;;;1.20;1.10;;;19.30;48.80;;;;;;4965143;29;20023;-62
2022/12/27 13:18:58;;;;;;;2.50;1.40;;;19.10;49.30;;;;;;4964075;29;20310;-61
2022/12/27 13:22:07;;;;;;;1.58;1.20;;;18.90;49.70;;;;;;4965145;29;20034;-62
2022/12/27 13:25:01;;;;;;;1.42;1.33;;;18.80;49.90;;;;;;4964967;29;20023;-62
2022/12/27 13:27:44;;;;;;;1.55;1.35;;;18.80;50.10;;;;;;4964909;29;20123;-64
2022/12/27 13:30:23;;;;;;;1.60;1.40;;;18.80;50.20;;;;;;4965005;29;20334;-63
2022/12/27 13:33:08;;;;;;;1.40;1.30;;;18.90;50.00;;;;;;4964935;29;20066;-62
2022/12/27 13:35:58;;;;;;;1.50;1.40;;;19.10;49.60;;;;;;4964760;29;20062;-62
2022/12/27 13:38:45;;;;;;;1.92;1.50;;;19.30;49.10;;;;;;4964607;29;20307;-62
2022/12/27 13:41:48;;;;;;;1.77;1.67;;;19.60;48.40;;;;;;4964650;29;20046;-63
2022/12/27 13:44:54;;;;;;;2.08;1.45;;;20.00;47.50;;;;;;4947076;29;20059;-64
2022/12/27 13:47:32;;;;;;;2.22;1.98;;;20.20;46.90;;;;;;4964162;29;20340;-64
2022/12/27 13:50:22;;;;;;;1.52;1.42;;;20.40;46.50;;;;;;4964539;29;20038;-64
2022/12/27 13:52:58;;;;;;;2.25;1.73;;;20.60;46.20;;;;;;4964503;29;20125;-64
2022/12/27 13:55:59;;;;;;;1.70;1.55;;;20.50;46.20;;;;;;4964436;29;20311;-63
2022/12/27 13:58:41;;;;;;;1.67;1.48;;;20.40;46.40;;;;;;4964315;29;20214;-64
2022/12/27 14:01:28;;;;;;;1.42;1.33;;;20.40;46.50;;;;;;4964262;29;20046;-64
2022/12/27 14:04:43;;;;;;;1.52;1.40;;;20.30;46.60;;;;;;4964207;29;20087;-63
2022/12/27 14:07:29;;;;;;;1.52;1.42;;;20.40;46.50;;;;;;4950295;29;20063;-64
2022/12/27 14:10:05;;;;;;;1.30;1.20;;;20.40;46.50;;;;;;4963920;28;20035;-64
2022/12/27 14:12:50;;;;;;;1.33;1.20;;;20.20;46.80;;;;;;4964125;29;20243;-63
2022/12/27 14:15:20;;;;;;;1.67;1.58;;;20.00;47.30;;;;;;4964002;29;20038;-63
2022/12/27 14:18:03;;;;;;;1.70;1.60;;;19.90;47.60;;;;;;4964008;29;20333;-63
2022/12/27 14:20:32;;;;;;;1.40;1.10;;;19.90;47.70;;;;;;4963988;29;20354;-64
2022/12/27 14:23:24;;;;;;;1.90;1.55;;;19.80;48.00;;;;;;4963958;29;20046;-64
2022/12/27 14:26:16;;;;;;;1.50;1.38;;;19.50;48.50;;;;;;4963786;29;20016;-64
2022/12/27 14:29:00;;;;;;;1.40;1.30;;;19.00;49.50;;;;;;4962586;29;20058;-64
2022/12/27 14:31:47;;;;;;;1.45;1.33;;;18.60;50.60;;;;;;4963734;29;20035;-65
2022/12/27 14:34:47;;;;;;;1.60;1.50;;;18.40;51.30;;;;;;4963573;29;20218;-63
2022/12/27 14:37:31;;;;;;;1.45;1.20;;;18.30;51.80;;;;;;4963533;29;20431;-63
2022/12/27 14:40:21;;;;;;;1.65;1.40;;;18.10;52.10;;;;;;4963433;29;20042;-63
2022/12/27 14:43:11;;;;;;;1.35;1.25;;;18.00;52.40;;;;;;4963439;29;20108;-64
2022/12/27 14:45:58;;;;;;;1.92;1.30;;;18.00;52.60;;;;;;4963506;29;20031;-63
2022/12/27 14:48:45;;;;;;;1.58;1.48;;;17.90;52.80;;;;;;4963458;29;20023;-63
2022/12/27 14:51:42;;;;;;;1.40;1.20;;;17.80;52.90;;;;;;4963410;29;20023;-63
2022/12/27 14:54:44;;;;;;;2.17;1.65;;;17.80;53.10;;;;;;4963056;29;20034;-63
2022/12/27 14:57:19;;;;;;;2.05;1.40;;;17.70;53.20;;;;;;4963137;29;20019;-64
2022/12/27 14:59:57;;;;;;;1.23;1.08;;;17.70;53.30;;;;;;4963278;29;20023;-62